Time;durP1;ratioP1;P1;durP2;ratioP2;P2;SDS_P1;SDS_P2;PMS_P1;PMS_P2;Temp;Humidity;BMP_temperature;BMP_pressure;BME280_temperature;BME280_humidity;BME280_pressure;Samples;Min_cycle;Max_cycle;Signal;HPM_P1;HPM_P2
2022/11/06 00:00:34;;;;;;;5.82;3.55;;;;;;;;;;5056227;28;20147;-77
2022/11/06 00:03:00;;;;;;;5.30;3.38;;;;;;;;;;5041434;28;20071;-77
2022/11/06 00:08:11;;;;;;;7.38;3.30;;;;;;;;;;5059791;28;20162;-77
2022/11/06 00:10:36;;;;;;;5.85;3.55;;;;;;;;;;5058563;28;20474;-78
2022/11/06 00:13:01;;;;;;;6.18;3.63;;;;;;;;;;5060075;28;20032;-78
2022/11/06 00:15:27;;;;;;;6.68;3.50;;;;;;;;;;5058467;28;20028;-78
2022/11/06 00:17:53;;;;;;;6.20;3.67;;;;;;;;;;5058499;28;20027;-78
2022/11/06 00:20:18;;;;;;;6.40;3.55;;;;;;;;;;5059975;28;20017;-78
2022/11/06 00:22:43;;;;;;;5.90;4.00;;;;;;;;;;5058993;28;20389;-79
2022/11/06 00:25:09;;;;;;;6.72;3.30;;;;;;;;;;5059214;28;20021;-78
2022/11/06 00:27:36;;;;;;;8.50;4.25;;;;;;;;;;5059074;28;20033;-78
2022/11/06 00:30:02;;;;;;;5.60;3.70;;;;;;;;;;5059264;28;20482;-77
2022/11/06 00:32:27;;;;;;;6.25;3.53;;;;;;;;;;5059585;28;20033;-78
2022/11/06 00:34:52;;;;;;;5.78;3.38;;;;;;;;;;5071982;28;20036;-77
2022/11/06 00:37:18;;;;;;;6.88;3.72;;;;;;;;;;5080331;28;20025;-78
2022/11/06 00:39:43;;;;;;;5.93;3.75;;;;;;;;;;5080069;28;20059;-77
2022/11/06 00:42:08;;;;;;;6.47;3.72;;;;;;;;;;5080249;28;20009;-77
2022/11/06 00:44:33;;;;;;;8.05;3.97;;;;;;;;;;5080720;28;20560;-77
2022/11/06 00:47:00;;;;;;;7.35;3.97;;;;;;;;;;5080164;28;20025;-77
2022/11/06 00:49:27;;;;;;;5.65;3.45;;;;;;;;;;5080149;28;20012;-77
2022/11/06 00:51:52;;;;;;;6.40;3.35;;;;;;;;;;5080395;28;20020;-77
2022/11/06 00:54:17;;;;;;;5.55;3.10;;;;;;;;;;5080397;28;20033;-77
2022/11/06 00:56:43;;;;;;;6.03;3.88;;;;;;;;;;5079830;28;20039;-78
2022/11/06 00:59:11;;;;;;;8.98;3.58;;;;;;;;;;5063192;28;20033;-78
2022/11/06 01:01:39;;;;;;;5.65;3.33;;;;;;;;;;5079943;28;20051;-77
2022/11/06 01:04:10;;;;;;;6.43;3.92;;;;;;;;;;5063461;28;20020;-77
2022/11/06 01:06:38;;;;;;;7.40;3.80;;;;;;;;;;5080335;28;20096;-77
2022/11/06 01:09:05;;;;;;;5.55;3.53;;;;;;;;;;5080350;28;20030;-77
2022/11/06 01:11:40;;;;;;;5.93;3.40;;;;;;;;;;5062761;28;20033;-77
2022/11/06 01:14:07;;;;;;;6.60;3.40;;;;;;;;;;5079471;28;20027;-77
2022/11/06 01:16:34;;;;;;;7.20;3.45;;;;;;;;;;5080311;28;20027;-78
2022/11/06 01:18:59;;;;;;;7.22;3.63;;;;;;;;;;5079866;28;20040;-77
2022/11/06 01:21:31;;;;;;;6.25;3.50;;;;;;;;;;5077660;28;19997;-77
2022/11/06 01:24:02;;;;;;;6.82;3.50;;;;;;;;;;5065218;28;20032;-79
2022/11/06 01:26:28;;;;;;;6.22;4.07;;;;;;;;;;5039714;28;20389;-78
2022/11/06 01:28:54;;;;;;;6.32;3.25;;;;;;;;;;5056654;28;20029;-77
2022/11/06 01:31:25;;;;;;;6.40;3.83;;;;;;;;;;5057720;28;20451;-76
2022/11/06 01:33:50;;;;;;;5.32;3.45;;;;;;;;;;5056902;28;20032;-77
2022/11/06 01:36:19;;;;;;;7.70;3.58;;;;;;;;;;5056304;28;20382;-76
2022/11/06 01:38:49;;;;;;;7.65;3.67;;;;;;;;;;5037912;28;20052;-77
2022/11/06 01:41:42;;;;;;;6.68;3.20;;;;;;;;;;5055690;28;20159;-77
2022/11/06 01:44:32;;;;;;;5.78;3.80;;;;;;;;;;5035721;28;20091;-77
2022/11/06 01:46:58;;;;;;;5.35;3.42;;;;;;;;;;5056229;28;20025;-77
2022/11/06 01:49:26;;;;;;;4.88;3.15;;;;;;;;;;5038157;28;20071;-78
2022/11/06 01:51:55;;;;;;;5.90;3.53;;;;;;;;;;5056519;28;20040;-77
2022/11/06 01:54:22;;;;;;;10.10;3.58;;;;;;;;;;5055536;28;20025;-77
2022/11/06 01:56:50;;;;;;;5.32;3.70;;;;;;;;;;5055752;28;20052;-77
2022/11/06 01:59:20;;;;;;;7.47;4.10;;;;;;;;;;5055297;28;20025;-77
2022/11/06 02:01:46;;;;;;;6.07;3.63;;;;;;;;;;5055365;28;20359;-78
2022/11/06 02:04:24;;;;;;;9.07;4.10;;;;;;;;;;5055786;28;20040;-78
2022/11/06 02:06:50;;;;;;;6.80;4.03;;;;;;;;;;5055576;28;20110;-78
2022/11/06 02:09:16;;;;;;;10.82;4.40;;;;;;;;;;5055537;28;20029;-78
2022/11/06 02:11:44;;;;;;;7.10;4.05;;;;;;;;;;5055203;28;20490;-78
2022/11/06 02:14:25;;;;;;;6.28;4.18;;;;;;;;;;5037480;28;20374;-78
2022/11/06 02:17:06;;;;;;;7.32;4.15;;;;;;;;;;5055157;28;20044;-78
2022/11/06 02:20:01;;;;;;;5.88;3.70;;;;;;;;;;5055065;28;20035;-77
2022/11/06 02:22:41;;;;;;;9.00;3.95;;;;;;;;;;5054868;28;20028;-78
2022/11/06 02:25:15;;;;;;;5.95;4.18;;;;;;;;;;5054824;28;20028;-78
2022/11/06 02:27:45;;;;;;;6.40;3.72;;;;;;;;;;5037037;28;20486;-78
2022/11/06 02:30:13;;;;;;;8.02;4.22;;;;;;;;;;5055007;28;20033;-77
2022/11/06 02:32:58;;;;;;;6.93;3.88;;;;;;;;;;5054408;28;20029;-77
2022/11/06 02:35:32;;;;;;;6.03;3.55;;;;;;;;;;5054573;28;20417;-78
2022/11/06 02:38:04;;;;;;;;;;;;;;;;;;5054740;28;20504;-77
2022/11/06 02:40:33;;;;;;;5.85;3.75;;;;;;;;;;5054757;28;19916;-78
2022/11/06 02:43:03;;;;;;;4.63;3.25;;;;;;;;;;5056343;28;20446;-78
2022/11/06 02:45:31;;;;;;;6.30;3.47;;;;;;;;;;5057772;28;20048;-78
2022/11/06 02:47:59;;;;;;;7.68;4.10;;;;;;;;;;5057410;28;20028;-78
2022/11/06 02:50:30;;;;;;;7.90;4.68;;;;;;;;;;5056163;28;20033;-77
2022/11/06 02:53:04;;;;;;;6.30;3.70;;;;;;;;;;5054258;28;20037;-78
2022/11/06 02:55:39;;;;;;;6.13;3.83;;;;;;;;;;5054390;28;20028;-78
2022/11/06 02:58:12;;;;;;;6.18;3.85;;;;;;;;;;5054018;28;20536;-78
2022/11/06 03:00:40;;;;;;;7.57;4.07;;;;;;;;;;5053907;28;20021;-77
2022/11/06 03:03:16;;;;;;;6.57;3.92;;;;;;;;;;5054083;28;20021;-78
2022/11/06 03:05:50;;;;;;;8.07;3.78;;;;;;;;;;5054696;28;20039;-77
2022/11/06 03:08:34;;;;;;;8.82;4.45;;;;;;;;;;5053832;28;20029;-78
2022/11/06 03:11:20;;;;;;;6.87;4.03;;;;;;;;;;5053433;28;20017;-77
2022/11/06 03:14:07;;;;;;;7.25;4.00;;;;;;;;;;5053955;28;20087;-77
2022/11/06 03:16:42;;;;;;;8.23;4.22;;;;;;;;;;5035830;28;20029;-77
2022/11/06 03:19:26;;;;;;;10.18;3.92;;;;;;;;;;5035799;28;20021;-77
2022/11/06 03:21:57;;;;;;;8.07;4.22;;;;;;;;;;5053690;28;20071;-77
2022/11/06 03:24:32;;;;;;;7.03;3.72;;;;;;;;;;5035617;28;20067;-77
2022/11/06 03:27:01;;;;;;;7.90;3.90;;;;;;;;;;5053825;28;20036;-77
2022/11/06 03:29:52;;;;;;;6.82;3.97;;;;;;;;;;5053347;28;20025;-77
2022/11/06 03:32:26;;;;;;;8.20;4.15;;;;;;;;;;5053389;28;20116;-77
2022/11/06 03:35:01;;;;;;;6.32;3.60;;;;;;;;;;5053775;28;20063;-78
2022/11/06 03:37:38;;;;;;;9.32;3.92;;;;;;;;;;5053460;28;20114;-77
2022/11/06 03:40:09;;;;;;;5.20;3.50;;;;;;;;;;5053185;28;20044;-77
2022/11/06 03:42:37;;;;;;;5.50;3.78;;;;;;;;;;5053843;28;20470;-77
2022/11/06 03:45:08;;;;;;;7.70;3.90;;;;;;;;;;5053860;28;20031;-78
2022/11/06 03:47:42;;;;;;;5.00;3.35;;;;;;;;;;5055993;28;20111;-78
2022/11/06 03:50:26;;;;;;;7.82;3.55;;;;;;;;;;5053434;28;20091;-77
2022/11/06 03:52:54;;;;;;;;;;;;;;;;;;5055510;28;20039;-78
2022/11/06 03:55:28;;;;;;;7.35;3.92;;;;;;;;;;5054809;28;19909;-77
2022/11/06 03:58:02;;;;;;;10.68;4.53;;;;;;;;;;5053349;28;20029;-77
2022/11/06 04:00:28;;;;;;;;;;;;;;;;;;5053755;28;20057;-77
2022/11/06 04:03:03;;;;;;;7.35;3.70;;;;;;;;;;5054525;28;19953;-78
2022/11/06 04:05:33;;;;;;;6.20;3.53;;;;;;;;;;5054719;28;20492;-77
2022/11/06 04:16:17;;;;;;;8.15;3.55;;;;;;;;;;5055802;28;20067;-77
2022/11/06 04:18:42;;;;;;;8.00;4.03;;;;;;;;;;5053395;28;20021;-77
2022/11/06 04:21:20;;;;;;;7.20;3.50;;;;;;;;;;5054143;28;20020;-78
2022/11/06 04:27:19;;;;;;;6.57;3.47;;;;;;;;;;5055885;28;20075;-78
2022/11/06 04:30:00;;;;;;;5.43;3.17;;;;;;;;;;5053817;28;20029;-78
2022/11/06 04:32:52;;;;;;;6.93;3.78;;;;;;;;;;5054296;28;20060;-78
2022/11/06 04:35:55;;;;;;;6.50;3.90;;;;;;;;;;5054891;28;20029;-78
2022/11/06 04:39:02;;;;;;;6.90;3.90;;;;;;;;;;5055755;28;20069;-78
2022/11/06 04:41:37;;;;;;;7.72;3.83;;;;;;;;;;5035224;28;20104;-78
2022/11/06 04:44:11;;;;;;;7.88;3.75;;;;;;;;;;5053578;28;20055;-79
2022/11/06 04:46:44;;;;;;;6.82;3.90;;;;;;;;;;5054445;28;20025;-78
2022/11/06 04:49:11;;;;;;;8.05;4.22;;;;;;;;;;5055996;28;20142;-77
2022/11/06 04:51:37;;;;;;;6.53;3.70;;;;;;;;;;5057645;28;20111;-78
2022/11/06 04:54:05;;;;;;;7.88;4.13;;;;;;;;;;5059288;28;20033;-77
2022/11/06 04:56:34;;;;;;;9.02;4.13;;;;;;;;;;5057028;28;20152;-78
2022/11/06 04:58:59;;;;;;;8.00;4.25;;;;;;;;;;5058682;28;20025;-78
2022/11/06 05:01:25;;;;;;;5.93;3.63;;;;;;;;;;5056675;28;20234;-77
2022/11/06 05:03:50;;;;;;;9.27;3.75;;;;;;;;;;5058156;28;20037;-77
2022/11/06 05:06:15;;;;;;;7.32;3.80;;;;;;;;;;5057229;28;20024;-78
2022/11/06 05:08:41;;;;;;;10.10;4.47;;;;;;;;;;5058545;28;20363;-78
2022/11/06 05:11:06;;;;;;;8.73;3.80;;;;;;;;;;5056306;28;20031;-77
2022/11/06 05:13:31;;;;;;;6.68;3.88;;;;;;;;;;5057990;28;20025;-78
2022/11/06 05:15:58;;;;;;;7.50;4.15;;;;;;;;;;5057995;28;20474;-78
2022/11/06 05:18:25;;;;;;;8.63;4.45;;;;;;;;;;5057274;28;20382;-78
2022/11/06 05:23:37;;;;;;;7.53;4.00;;;;;;;;;;5056841;28;20393;-77
2022/11/06 05:26:06;;;;;;;7.88;4.18;;;;;;;;;;5055322;28;20027;-77
2022/11/06 05:28:31;;;;;;;7.68;4.25;;;;;;;;;;5056736;28;20060;-78
2022/11/06 05:30:56;;;;;;;8.20;4.63;;;;;;;;;;5056273;28;20052;-78
2022/11/06 05:33:22;;;;;;;7.18;4.32;;;;;;;;;;5056572;28;20017;-78
2022/11/06 05:35:48;;;;;;;7.43;4.45;;;;;;;;;;5040687;28;20086;-78
2022/11/06 05:38:13;;;;;;;7.13;4.65;;;;;;;;;;5059282;28;20474;-78
2022/11/06 05:40:38;;;;;;;9.52;4.80;;;;;;;;;;5038231;28;20102;-78
2022/11/06 05:43:03;;;;;;;8.50;4.22;;;;;;;;;;5056191;28;20025;-78
2022/11/06 05:45:29;;;;;;;11.82;4.72;;;;;;;;;;5056425;28;20029;-78
2022/11/06 05:47:54;;;;;;;9.10;4.90;;;;;;;;;;5055963;28;20021;-77
2022/11/06 05:50:20;;;;;;;9.02;4.78;;;;;;;;;;5056870;28;20033;-77
2022/11/06 05:52:45;;;;;;;8.25;4.78;;;;;;;;;;5038654;28;20021;-78
2022/11/06 05:55:10;;;;;;;9.15;5.07;;;;;;;;;;5060066;28;20062;-78
2022/11/06 05:57:35;;;;;;;9.25;4.97;;;;;;;;;;5061580;28;20025;-78
2022/11/06 06:00:01;;;;;;;10.98;4.45;;;;;;;;;;5055717;28;20071;-78
2022/11/06 06:02:26;;;;;;;12.98;4.68;;;;;;;;;;5057560;28;20487;-78
2022/11/06 06:04:51;;;;;;;8.20;4.68;;;;;;;;;;5055586;28;20367;-78
2022/11/06 06:07:17;;;;;;;11.15;4.68;;;;;;;;;;5056639;28;20017;-78
2022/11/06 06:09:42;;;;;;;7.70;4.38;;;;;;;;;;5056019;28;20021;-78
2022/11/06 06:12:11;;;;;;;8.23;4.45;;;;;;;;;;5055289;28;20028;-77
2022/11/06 06:14:36;;;;;;;10.35;4.88;;;;;;;;;;5057528;28;20025;-79
2022/11/06 06:17:01;;;;;;;10.70;4.90;;;;;;;;;;5057179;28;20113;-78
2022/11/06 06:19:26;;;;;;;8.38;4.53;;;;;;;;;;5056617;28;20028;-78
2022/11/06 06:21:52;;;;;;;10.60;4.85;;;;;;;;;;5057437;28;20086;-78
2022/11/06 06:24:17;;;;;;;8.63;4.88;;;;;;;;;;5055645;28;20347;-78
2022/11/06 06:26:42;;;;;;;10.00;4.68;;;;;;;;;;5055634;28;20021;-78
2022/11/06 06:29:07;;;;;;;8.57;5.10;;;;;;;;;;5059344;28;20017;-79
2022/11/06 06:31:33;;;;;;;8.93;5.38;;;;;;;;;;5056799;28;20029;-79
2022/11/06 06:33:58;;;;;;;12.02;6.68;;;;;;;;;;5056512;28;20047;-77
2022/11/06 06:36:23;;;;;;;11.63;6.18;;;;;;;;;;5056926;28;20563;-78
2022/11/06 06:38:49;;;;;;;13.73;4.70;;;;;;;;;;5040564;28;20021;-79
2022/11/06 06:41:14;;;;;;;8.82;5.10;;;;;;;;;;5057960;28;20470;-78
2022/11/06 06:43:39;;;;;;;8.75;4.65;;;;;;;;;;5053954;28;20025;-78
2022/11/06 06:46:06;;;;;;;9.88;5.20;;;;;;;;;;5054669;28;20031;-78
2022/11/06 06:48:31;;;;;;;8.57;4.50;;;;;;;;;;5055425;28;20103;-78
2022/11/06 06:51:00;;;;;;;8.60;4.90;;;;;;;;;;5055544;28;20470;-78
2022/11/06 06:53:26;;;;;;;9.68;4.70;;;;;;;;;;5055707;28;20032;-77
2022/11/06 06:55:52;;;;;;;10.07;4.65;;;;;;;;;;5056790;28;20036;-77
2022/11/06 06:58:18;;;;;;;11.02;4.90;;;;;;;;;;5055691;28;20470;-78
2022/11/06 07:00:43;;;;;;;8.98;5.35;;;;;;;;;;5058580;28;20033;-78
2022/11/06 07:03:09;;;;;;;11.02;5.15;;;;;;;;;;5038151;28;20029;-77
2022/11/06 07:05:35;;;;;;;11.20;5.00;;;;;;;;;;5055419;28;20486;-79
2022/11/06 07:08:00;;;;;;;10.48;5.60;;;;;;;;;;5056248;28;20016;-77
2022/11/06 07:10:26;;;;;;;11.00;5.43;;;;;;;;;;5055970;28;20024;-78
2022/11/06 07:12:51;;;;;;;12.95;5.00;;;;;;;;;;5055736;28;20466;-78
2022/11/06 07:15:16;;;;;;;8.30;4.78;;;;;;;;;;5059126;28;20111;-76
2022/11/06 07:17:41;;;;;;;12.57;5.47;;;;;;;;;;5058941;28;20027;-78
2022/11/06 07:20:08;;;;;;;8.40;5.07;;;;;;;;;;5055997;28;20048;-77
2022/11/06 07:22:33;;;;;;;10.98;5.47;;;;;;;;;;5054629;28;20047;-78
2022/11/06 07:24:58;;;;;;;10.38;5.30;;;;;;;;;;5054212;28;20032;-78
2022/11/06 07:27:24;;;;;;;13.40;5.82;;;;;;;;;;5055274;28;20035;-77
2022/11/06 07:29:49;;;;;;;9.98;5.35;;;;;;;;;;5036635;28;20025;-77
2022/11/06 07:32:15;;;;;;;9.80;5.90;;;;;;;;;;5055835;28;20025;-78
2022/11/06 07:34:40;;;;;;;11.13;5.65;;;;;;;;;;5054328;28;20051;-78
2022/11/06 07:37:06;;;;;;;12.93;5.95;;;;;;;;;;5054638;28;20485;-78
2022/11/06 07:39:31;;;;;;;12.43;5.93;;;;;;;;;;5036178;28;20025;-77
2022/11/06 07:41:57;;;;;;;11.63;5.47;;;;;;;;;;5055110;28;20021;-78
2022/11/06 07:44:22;;;;;;;12.32;5.57;;;;;;;;;;5054041;28;20033;-77
2022/11/06 07:46:47;;;;;;;11.13;5.72;;;;;;;;;;5036751;28;20032;-78
2022/11/06 07:49:14;;;;;;;11.25;6.28;;;;;;;;;;5057478;28;20055;-79
2022/11/06 07:51:40;;;;;;;11.13;6.15;;;;;;;;;;5053684;28;20070;-78
2022/11/06 07:54:05;;;;;;;10.48;5.57;;;;;;;;;;5053463;28;20021;-77
2022/11/06 07:56:30;;;;;;;11.13;6.28;;;;;;;;;;5036526;28;20470;-77
2022/11/06 07:58:56;;;;;;;14.10;6.00;;;;;;;;;;5054031;28;20031;-79
2022/11/06 08:01:21;;;;;;;13.02;6.55;;;;;;;;;;5036099;28;20055;-77
2022/11/06 08:03:47;;;;;;;12.48;6.25;;;;;;;;;;5053804;28;20060;-77
2022/11/06 08:06:12;;;;;;;10.95;6.57;;;;;;;;;;5053602;28;20021;-78
2022/11/06 08:08:37;;;;;;;12.90;6.88;;;;;;;;;;5054005;28;20029;-77
2022/11/06 08:11:08;;;;;;;13.43;6.80;;;;;;;;;;5035686;28;20096;-78
2022/11/06 08:13:34;;;;;;;13.15;7.30;;;;;;;;;;5035786;28;20029;-77
2022/11/06 08:16:07;;;;;;;12.10;6.60;;;;;;;;;;5053700;28;20025;-77
2022/11/06 08:18:32;;;;;;;11.30;6.93;;;;;;;;;;5054425;28;20017;-77
2022/11/06 08:20:58;;;;;;;12.98;6.90;;;;;;;;;;5054437;28;20029;-77
2022/11/06 08:23:23;;;;;;;12.65;6.88;;;;;;;;;;5055629;28;20418;-77
2022/11/06 08:25:51;;;;;;;15.98;7.72;;;;;;;;;;5056898;28;20036;-77
2022/11/06 08:28:17;;;;;;;13.15;7.18;;;;;;;;;;5039247;28;20032;-77
2022/11/06 08:30:42;;;;;;;13.27;6.75;;;;;;;;;;5060953;28;20025;-78
2022/11/06 08:33:10;;;;;;;12.07;6.72;;;;;;;;;;5061595;28;20088;-78
2022/11/06 08:35:36;;;;;;;12.27;6.60;;;;;;;;;;5060556;28;20126;-78
2022/11/06 08:38:02;;;;;;;10.95;6.18;;;;;;;;;;5042046;28;20095;-79
2022/11/06 08:40:27;;;;;;;15.18;6.60;;;;;;;;;;5058678;28;20398;-79
2022/11/06 08:42:58;;;;;;;11.88;6.10;;;;;;;;;;5040924;28;20021;-78
2022/11/06 08:45:23;;;;;;;14.13;6.95;;;;;;;;;;5039548;28;20086;-79
2022/11/06 08:47:49;;;;;;;13.32;6.03;;;;;;;;;;5057994;28;20021;-78
2022/11/06 08:50:14;;;;;;;12.10;6.07;;;;;;;;;;5058364;28;20543;-78
2022/11/06 08:52:40;;;;;;;13.60;6.15;;;;;;;;;;5057314;28;20025;-78
2022/11/06 08:55:06;;;;;;;9.57;5.95;;;;;;;;;;5062107;28;20017;-79
2022/11/06 08:57:32;;;;;;;12.75;6.35;;;;;;;;;;5043580;28;20032;-80
2022/11/06 08:59:57;;;;;;;11.98;6.38;;;;;;;;;;5059351;28;20129;-79
2022/11/06 09:02:22;;;;;;;9.77;5.50;;;;;;;;;;5058340;28;20029;-79
2022/11/06 09:04:47;;;;;;;8.00;4.85;;;;;;;;;;5059271;28;20025;-78
2022/11/06 09:07:13;;;;;;;11.73;5.50;;;;;;;;;;5057870;28;20031;-79
2022/11/06 09:09:38;;;;;;;10.40;5.45;;;;;;;;;;5058762;28;20470;-77
2022/11/06 09:12:04;;;;;;;10.07;5.28;;;;;;;;;;5041643;28;20064;-78
2022/11/06 09:14:29;;;;;;;11.40;5.50;;;;;;;;;;5058320;28;20025;-79
2022/11/06 09:16:54;;;;;;;9.18;5.22;;;;;;;;;;5058428;28;20033;-79
2022/11/06 09:19:19;;;;;;;13.65;6.15;;;;;;;;;;5044532;28;20421;-78
2022/11/06 09:21:45;;;;;;;9.50;5.50;;;;;;;;;;5043853;28;20026;-79
2022/11/06 09:24:10;;;;;;;21.27;7.75;;;;;;;;;;5041229;28;20166;-79
2022/11/06 09:26:35;;;;;;;11.10;5.32;;;;;;;;;;5059075;28;20033;-78
2022/11/06 09:29:01;;;;;;;10.00;5.05;;;;;;;;;;5060866;28;20021;-79
2022/11/06 09:31:26;;;;;;;10.45;5.28;;;;;;;;;;5061321;28;20060;-78
2022/11/06 09:33:51;;;;;;;12.80;5.18;;;;;;;;;;5040755;28;20024;-80
2022/11/06 09:36:16;;;;;;;8.88;5.30;;;;;;;;;;5059374;28;20025;-78
2022/11/06 09:38:42;;;;;;;10.15;5.28;;;;;;;;;;5040964;28;20070;-78
2022/11/06 09:41:18;;;;;;;7.95;4.90;;;;;;;;;;5058591;28;20048;-79
2022/11/06 09:44:04;;;;;;;9.50;4.47;;;;;;;;;;5059013;28;20493;-78
2022/11/06 09:46:48;;;;;;;7.30;4.20;;;;;;;;;;5058807;28;20032;-78
2022/11/06 09:49:48;;;;;;;7.40;4.50;;;;;;;;;;5059383;28;20028;-78
2022/11/06 09:52:35;;;;;;;8.52;4.65;;;;;;;;;;5043473;28;20029;-79
2022/11/06 09:55:09;;;;;;;9.30;4.60;;;;;;;;;;5058350;28;20035;-79
2022/11/06 09:57:41;;;;;;;7.32;3.88;;;;;;;;;;5058906;28;20063;-78
2022/11/06 10:00:10;;;;;;;8.70;4.45;;;;;;;;;;5058592;28;20040;-79
2022/11/06 10:02:52;;;;;;;7.43;3.80;;;;;;;;;;5058308;28;20043;-78
2022/11/06 10:05:33;;;;;;;8.65;4.45;;;;;;;;;;5061871;28;20031;-78
2022/11/06 10:08:01;;;;;;;7.03;4.07;;;;;;;;;;5059043;28;20028;-78
2022/11/06 10:10:43;;;;;;;6.68;4.32;;;;;;;;;;5057644;28;20025;-79
2022/11/06 10:13:34;;;;;;;7.10;4.00;;;;;;;;;;5060068;28;20032;-78
2022/11/06 10:16:20;;;;;;;4.95;2.65;;;;;;;;;;5057381;28;20029;-78
2022/11/06 10:18:55;;;;;;;7.45;4.22;;;;;;;;;;5057235;28;20029;-78
2022/11/06 10:21:32;;;;;;;8.95;3.95;;;;;;;;;;5039635;28;20021;-79
2022/11/06 10:24:02;;;;;;;7.00;3.60;;;;;;;;;;5057616;28;20025;-78
2022/11/06 10:26:41;;;;;;;7.22;3.80;;;;;;;;;;5058620;28;20025;-78
2022/11/06 10:29:32;;;;;;;5.90;3.60;;;;;;;;;;5057223;28;20093;-79
2022/11/06 10:32:25;;;;;;;6.78;3.72;;;;;;;;;;5058479;28;20021;-78
2022/11/06 10:35:01;;;;;;;7.05;3.75;;;;;;;;;;5041062;28;20092;-78
2022/11/06 10:37:34;;;;;;;4.82;2.70;;;;;;;;;;5057509;28;20025;-79
2022/11/06 10:40:04;;;;;;;6.13;2.67;;;;;;;;;;5041084;28;20029;-79
2022/11/06 10:42:38;;;;;;;5.28;3.22;;;;;;;;;;5057570;28;20019;-78
2022/11/06 10:45:16;;;;;;;4.50;2.13;;;;;;;;;;5056246;28;20032;-78
2022/11/06 10:47:46;;;;;;;5.97;3.00;;;;;;;;;;5040695;28;20210;-79
2022/11/06 10:50:13;;;;;;;3.03;2.30;;;;;;;;;;5058952;28;20033;-79
2022/11/06 10:52:41;;;;;;;4.47;2.55;;;;;;;;;;5056490;28;20032;-78
2022/11/06 10:55:22;;;;;;;4.25;2.30;;;;;;;;;;5057260;28;20379;-78
2022/11/06 10:58:06;;;;;;;3.03;2.00;;;;;;;;;;5056523;28;20405;-78
2022/11/06 11:00:32;;;;;;;4.78;1.55;;;;;;;;;;5055975;28;20020;-78
2022/11/06 11:03:05;;;;;;;3.50;2.20;;;;;;;;;;5055778;28;20029;-76
2022/11/06 11:05:38;;;;;;;5.85;2.20;;;;;;;;;;5056500;28;20060;-81
2022/11/06 11:08:04;;;;;;;5.33;2.20;;;;;;;;;;5056339;28;20021;-78
2022/11/06 11:10:32;;;;;;;4.57;2.30;;;;;;;;;;5056315;28;20258;-77
2022/11/06 11:13:01;;;;;;;3.83;2.25;;;;;;;;;;5056645;28;20527;-77
2022/11/06 11:15:30;;;;;;;4.57;2.58;;;;;;;;;;5037986;28;20033;-78
2022/11/06 11:18:15;;;;;;;5.53;2.05;;;;;;;;;;5056881;28;20058;-77
2022/11/06 11:20:49;;;;;;;4.88;2.70;;;;;;;;;;5059516;28;20021;-78
2022/11/06 11:23:24;;;;;;;4.25;2.22;;;;;;;;;;5060182;28;20067;-78
2022/11/06 11:25:55;;;;;;;2.70;1.98;;;;;;;;;;5056037;28;20032;-78
2022/11/06 11:28:23;;;;;;;5.55;3.00;;;;;;;;;;5038867;28;20033;-78
2022/11/06 11:31:14;;;;;;;4.32;2.30;;;;;;;;;;5058791;28;20049;-78
2022/11/06 11:33:46;;;;;;;5.82;2.65;;;;;;;;;;5059392;28;20043;-79
2022/11/06 11:36:11;;;;;;;4.22;2.60;;;;;;;;;;5056214;28;20037;-77
2022/11/06 11:38:39;;;;;;;6.60;3.10;;;;;;;;;;5055755;28;20032;-78
2022/11/06 11:41:08;;;;;;;5.00;2.70;;;;;;;;;;5056843;28;20033;-79
2022/11/06 11:43:34;;;;;;;4.57;2.50;;;;;;;;;;5055485;28;20051;-78
2022/11/06 11:46:09;;;;;;;6.68;3.20;;;;;;;;;;5054816;28;20029;-77
2022/11/06 11:48:54;;;;;;;5.53;2.47;;;;;;;;;;5055272;28;20032;-77
2022/11/06 11:51:41;;;;;;;3.88;2.30;;;;;;;;;;5053490;28;20078;-78
2022/11/06 11:54:12;;;;;;;7.13;2.50;;;;;;;;;;5054710;28;20060;-78
2022/11/06 11:57:04;;;;;;;4.18;2.55;;;;;;;;;;5055366;28;20021;-77
2022/11/06 11:59:35;;;;;;;4.30;2.58;;;;;;;;;;5059188;28;20207;-78
2022/11/06 12:02:09;;;;;;;3.30;2.20;;;;;;;;;;5059810;28;20028;-78
2022/11/06 12:04:40;;;;;;;3.20;2.17;;;;;;;;;;5040631;28;20607;-78
2022/11/06 12:07:13;;;;;;;4.85;2.58;;;;;;;;;;5058536;28;20108;-79
2022/11/06 12:09:43;;;;;;;4.35;2.50;;;;;;;;;;5056814;28;20445;-77
2022/11/06 12:12:25;;;;;;;6.65;2.42;;;;;;;;;;5059422;28;20037;-79
2022/11/06 12:15:21;;;;;;;4.57;2.42;;;;;;;;;;5042212;28;20021;-78
2022/11/06 12:18:02;;;;;;;3.88;2.22;;;;;;;;;;5041102;28;20401;-78
2022/11/06 12:20:44;;;;;;;6.32;2.63;;;;;;;;;;5057351;28;20453;-78
2022/11/06 12:23:17;;;;;;;4.03;2.42;;;;;;;;;;5058209;28;20017;-77
2022/11/06 12:25:50;;;;;;;5.75;2.80;;;;;;;;;;5040119;28;20029;-77
2022/11/06 12:28:18;;;;;;;7.43;2.70;;;;;;;;;;5040621;28;20035;-78
2022/11/06 12:30:48;;;;;;;4.68;2.50;;;;;;;;;;5058572;28;20055;-78
2022/11/06 12:33:20;;;;;;;3.47;2.00;;;;;;;;;;5059147;28;20433;-78
2022/11/06 12:35:58;;;;;;;3.28;1.80;;;;;;;;;;5041855;28;20034;-78
2022/11/06 12:38:27;;;;;;;3.50;1.90;;;;;;;;;;5058367;28;20032;-78
2022/11/06 12:41:10;;;;;;;3.55;2.13;;;;;;;;;;5058296;28;20578;-77
2022/11/06 12:43:49;;;;;;;6.03;2.50;;;;;;;;;;5057692;28;20522;-79
2022/11/06 12:46:32;;;;;;;13.20;5.50;;;;;;;;;;5057619;28;20028;-78
2022/11/06 12:49:00;;;;;;;4.65;2.45;;;;;;;;;;5059338;28;20035;-78
2022/11/06 12:51:26;;;;;;;4.95;2.28;;;;;;;;;;5043221;28;20029;-78
2022/11/06 12:54:18;;;;;;;7.13;2.30;;;;;;;;;;5059290;28;20112;-78
2022/11/06 12:56:58;;;;;;;6.50;3.47;;;;;;;;;;5057456;28;20304;-78
2022/11/06 12:59:42;;;;;;;4.50;2.42;;;;;;;;;;5060153;28;20024;-77
2022/11/06 13:02:18;;;;;;;6.50;2.70;;;;;;;;;;5063373;28;20036;-79
2022/11/06 13:05:06;;;;;;;9.98;5.00;;;;;;;;;;5061801;28;20393;-79
2022/11/06 13:07:56;;;;;;;7.32;3.70;;;;;;;;;;5043264;28;20558;-79
2022/11/06 13:11:03;;;;;;;5.10;2.83;;;;;;;;;;5043418;28;20025;-79
2022/11/06 13:13:51;;;;;;;5.65;2.85;;;;;;;;;;4961933;28;20499;-78
2022/11/06 13:16:39;;;;;;;3.85;2.38;;;;;;;;;;4978798;28;20129;-78
2022/11/06 13:19:27;;;;;;;5.68;2.88;;;;;;;;;;5040960;28;20033;-78
2022/11/06 13:22:08;;;;;;;5.70;2.97;;;;;;;;;;5058537;28;20028;-77
2022/11/06 13:24:42;;;;;;;4.53;2.75;;;;;;;;;;5040241;28;20025;-78
2022/11/06 13:27:46;;;;;;;5.28;2.95;;;;;;;;;;5057077;28;20034;-77
2022/11/06 13:30:18;;;;;;;4.38;2.38;;;;;;;;;;4997020;28;20030;-77
2022/11/06 13:32:51;;;;;;;6.88;3.72;;;;;;;;;;4997675;28;20488;-77
2022/11/06 13:35:20;;;;;;;6.82;3.20;;;;;;;;;;4997188;28;20057;-79
2022/11/06 13:37:55;;;;;;;8.98;3.88;;;;;;;;;;5010512;28;20118;-77
2022/11/06 13:40:32;;;;;;;7.40;3.53;;;;;;;;;;5059907;28;20025;-79
2022/11/06 13:43:09;;;;;;;5.55;3.80;;;;;;;;;;5040136;28;20029;-78
2022/11/06 13:46:15;;;;;;;7.00;4.38;;;;;;;;;;5058695;28;20021;-78
2022/11/06 13:49:14;;;;;;;9.13;4.28;;;;;;;;;;5018756;28;20029;-78
2022/11/06 13:51:42;;;;;;;12.70;4.22;;;;;;;;;;5040162;28;20083;-79
2022/11/06 13:54:16;;;;;;;7.25;4.03;;;;;;;;;;5058433;28;20029;-79
2022/11/06 13:56:47;;;;;;;;;;;;;;;;;;5061752;28;20036;-79
2022/11/06 13:59:25;;;;;;;7.25;4.90;;;;;;;;;;5060193;28;19908;-79
2022/11/06 14:02:16;;;;;;;12.50;5.97;;;;;;;;;;5062317;28;20055;-79
2022/11/06 14:05:08;;;;;;;10.90;5.60;;;;;;;;;;5062135;28;20059;-78
2022/11/06 14:07:35;;;;;;;10.15;5.85;;;;;;;;;;5060610;28;20036;-79
2022/11/06 14:10:01;;;;;;;13.52;5.75;;;;;;;;;;5041339;28;20032;-79
2022/11/06 14:12:27;;;;;;;9.45;5.78;;;;;;;;;;5040607;28;20024;-78
2022/11/06 14:15:13;;;;;;;10.73;6.32;;;;;;;;;;5040811;28;20120;-78
2022/11/06 14:17:39;;;;;;;10.55;6.20;;;;;;;;;;5054013;28;20036;-77
2022/11/06 14:20:28;;;;;;;12.20;6.30;;;;;;;;;;5055028;28;20044;-79
2022/11/06 14:22:54;;;;;;;10.35;6.32;;;;;;;;;;5055328;28;20032;-78
2022/11/06 14:25:28;;;;;;;8.80;5.88;;;;;;;;;;5056676;28;20025;-78
2022/11/06 14:27:53;;;;;;;12.07;6.25;;;;;;;;;;5056716;28;20386;-77
2022/11/06 14:30:27;;;;;;;10.68;5.90;;;;;;;;;;5054462;28;20017;-77
2022/11/06 14:32:56;;;;;;;11.10;5.63;;;;;;;;;;5056450;28;20511;-78
2022/11/06 14:35:27;;;;;;;12.00;6.50;;;;;;;;;;5039472;28;20031;-78
2022/11/06 14:38:09;;;;;;;8.80;5.18;;;;;;;;;;5038871;28;20079;-78
2022/11/06 14:40:36;;;;;;;10.30;6.57;;;;;;;;;;5055443;28;20029;-77
2022/11/06 14:43:25;;;;;;;11.95;7.00;;;;;;;;;;5055980;28;20099;-77
2022/11/06 14:46:15;;;;;;;10.60;4.57;;;;;;;;;;5054469;28;20432;-77
2022/11/06 14:48:44;;;;;;;11.32;6.68;;;;;;;;;;5056193;28;20040;-78
2022/11/06 14:51:12;;;;;;;12.57;6.90;;;;;;;;;;5055765;28;20103;-77
2022/11/06 14:53:47;;;;;;;9.98;6.07;;;;;;;;;;5055343;28;20045;-78
2022/11/06 14:56:21;;;;;;;9.35;5.18;;;;;;;;;;5056352;28;20533;-78
2022/11/06 14:59:09;;;;;;;10.55;6.88;;;;;;;;;;5056091;28;20029;-77
2022/11/06 15:01:36;;;;;;;10.25;6.43;;;;;;;;;;5054982;28;20038;-78
2022/11/06 15:04:13;;;;;;;8.82;5.20;;;;;;;;;;5056032;28;20492;-78
2022/11/06 15:06:46;;;;;;;13.02;7.30;;;;;;;;;;5056128;28;20469;-78
2022/11/06 15:09:23;;;;;;;13.30;7.25;;;;;;;;;;5055906;28;20036;-78
2022/11/06 15:11:50;;;;;;;13.20;7.35;;;;;;;;;;5037481;28;20028;-79
2022/11/06 15:14:15;;;;;;;11.43;6.88;;;;;;;;;;5037653;28;20465;-79
2022/11/06 15:17:02;;;;;;;12.90;7.15;;;;;;;;;;5055781;28;20060;-78
2022/11/06 15:19:32;;;;;;;12.40;6.85;;;;;;;;;;5038245;28;20529;-78
2022/11/06 15:22:30;;;;;;;12.55;6.25;;;;;;;;;;5038120;28;20025;-79
2022/11/06 15:25:09;;;;;;;13.88;6.97;;;;;;;;;;5023794;28;20056;-78